createdAt,value
2017-07-02T00:00:03.067Z,22.37
2017-07-02T00:02:32.568Z,19.80
2017-07-02T00:07:35.570Z,22.60
2017-07-02T00:10:05.715Z,17.00
2017-07-02T00:12:35.199Z,23.98
2017-07-02T00:15:05.053Z,22.55
2017-07-02T00:17:36.052Z,31.15
2017-07-02T00:20:04.087Z,19.12
2017-07-02T00:25:04.215Z,27.00
2017-07-02T00:27:37.030Z,23.85
2017-07-02T00:32:40.471Z,20.75
2017-07-02T00:35:07.407Z,19.32
2017-07-02T00:37:35.253Z,20.13
2017-07-02T00:40:02.468Z,23.43
2017-07-02T00:42:29.460Z,21.65
2017-07-02T00:44:58.294Z,21.07
2017-07-02T00:47:30.228Z,26.12
2017-07-02T00:49:59.189Z,18.45
2017-07-02T00:52:27.174Z,19.02
2017-07-02T00:54:54.127Z,25.88
2017-07-02T00:57:26.613Z,20.35
2017-07-02T00:59:57.545Z,27.20
2017-07-02T01:02:30.012Z,23.95
2017-07-02T01:04:57.861Z,24.33
2017-07-02T01:10:02.395Z,24.48
2017-07-02T01:12:31.866Z,32.53
2017-07-02T01:15:02.065Z,23.97
2017-07-02T01:17:29.205Z,18.02
2017-07-02T01:19:56.563Z,23.30
2017-07-02T01:22:27.483Z,23.73
2017-07-02T01:24:57.748Z,26.97
2017-07-02T01:27:26.989Z,28.73
2017-07-02T01:30:02.431Z,26.55
2017-07-02T01:32:32.276Z,26.17
2017-07-02T01:35:01.867Z,23.42
2017-07-02T01:37:29.469Z,22.65
2017-07-02T01:42:30.519Z,28.75
2017-07-02T01:45:09.751Z,22.03
2017-07-02T01:47:37.870Z,28.45
2017-07-02T01:50:05.215Z,26.52
2017-07-02T01:52:36.496Z,26.08
2017-07-02T01:55:04.740Z,30.67
2017-07-02T01:57:34.612Z,26.30
2017-07-02T02:00:05.988Z,33.57
2017-07-02T02:02:38.950Z,33.53
2017-07-02T02:05:09.504Z,28.38
2017-07-02T02:07:38.450Z,25.87
2017-07-02T02:12:43.725Z,23.92
2017-07-02T02:15:12.049Z,29.55
2017-07-02T02:17:40.252Z,20.92
2017-07-02T02:22:44.677Z,30.27
2017-07-02T02:25:11.891Z,29.85
2017-07-02T02:27:41.629Z,35.67
2017-07-02T02:30:09.657Z,29.02
2017-07-02T02:32:44.129Z,28.02
2017-07-02T02:35:14.774Z,27.20
2017-07-02T02:37:44.102Z,26.05
2017-07-02T02:40:11.848Z,28.43
2017-07-02T02:42:40.446Z,26.33
2017-07-02T02:45:08.820Z,24.22
2017-07-02T02:47:39.974Z,17.45
2017-07-02T02:50:09.059Z,28.35
2017-07-02T02:52:37.245Z,29.95
2017-07-02T02:55:10.956Z,27.43
2017-07-02T02:57:41.791Z,20.48
2017-07-02T03:00:11.140Z,27.45
2017-07-02T03:02:38.559Z,26.13
2017-07-02T03:07:45.783Z,24.75
2017-07-02T03:10:12.968Z,30.90
2017-07-02T03:15:18.252Z,32.87
2017-07-02T03:17:48.607Z,29.45
2017-07-02T03:20:16.283Z,27.98
2017-07-02T03:22:44.932Z,27.78
2017-07-02T03:25:13.077Z,30.83
2017-07-02T03:27:41.825Z,24.32
2017-07-02T03:32:43.086Z,37.03
2017-07-02T05:30:33.246Z,16.60
2017-07-02T05:38:15.074Z,10.70
2017-07-02T05:45:53.171Z,16.63
2017-07-02T05:50:57.472Z,16.03
2017-07-02T06:21:11.875Z,16.75
2017-07-02T07:06:42.466Z,12.60
2017-07-02T07:11:54.703Z,15.48
2017-07-02T07:19:31.246Z,12.82
2017-07-02T07:22:03.644Z,15.27
2017-07-02T08:31:23.251Z,8.88
2017-07-02T08:38:52.792Z,13.07
2017-07-02T08:41:19.726Z,10.78
2017-07-02T08:46:20.522Z,18.67
2017-07-02T08:51:24.584Z,16.85
2017-07-02T08:53:53.955Z,11.28
2017-07-02T08:56:21.132Z,12.88
2017-07-02T08:58:50.137Z,19.35
2017-07-02T09:01:17.075Z,17.08
2017-07-02T09:03:44.464Z,13.17
2017-07-02T09:06:12.451Z,12.48
2017-07-02T09:08:39.840Z,18.92
2017-07-02T09:11:07.202Z,13.68
2017-07-02T09:13:34.213Z,15.13
2017-07-02T09:16:01.238Z,14.92
2017-07-02T09:18:29.058Z,17.92
2017-07-02T09:20:57.949Z,13.22
2017-07-02T10:01:36.916Z,23.07
2017-07-02T10:06:46.017Z,27.13
2017-07-02T10:17:13.071Z,26.08
